Time;durP1;ratioP1;P1;durP2;ratioP2;P2;SDS_P1;SDS_P2;PMS_P1;PMS_P2;Temp;Humidity;BMP_temperature;BMP_pressure;BME280_temperature;BME280_humidity;BME280_pressure;Samples;Min_cycle;Max_cycle;Signal;HPM_P1;HPM_P2
2022/04/06 00:01:54;;;;;;;16.00;14.17;;;;;;;9.65;91.93;99461.25;5016294;28;20234;-81
2022/04/06 00:04:23;;;;;;;14.17;12.63;;;;;;;9.64;92.09;99448.91;5016608;28;20207;-83
2022/04/06 00:06:52;;;;;;;18.03;13.90;;;;;;;9.61;91.96;99454.47;5015381;28;20221;-80
2022/04/06 00:09:19;;;;;;;17.87;13.70;;;;;;;9.61;92.29;99452.66;5014744;28;20257;-82
2022/04/06 00:11:46;;;;;;;19.23;14.33;;;;;;;9.61;91.88;99443.84;5014914;28;20223;-81
2022/04/06 00:14:13;;;;;;;17.07;14.33;;;;;;;9.59;92.45;99457.25;5015258;28;20203;-82
2022/04/06 00:16:39;;;;;;;20.10;14.77;;;;;;;9.58;92.14;99447.56;5015825;28;20260;-81
2022/04/06 00:19:06;;;;;;;22.30;15.20;;;;;;;9.58;92.53;99446.72;5014881;28;20211;-80
2022/04/06 00:21:33;;;;;;;21.57;13.93;;;;;;;9.58;92.24;99442.25;5014609;28;20234;-82
2022/04/06 00:24:01;;;;;;;22.77;14.73;;;;;;;9.57;92.13;99445.88;5015266;28;20206;-81
2022/04/06 00:26:28;;;;;;;20.53;14.93;;;;;;;9.57;92.40;99445.03;5015199;28;20305;-81
2022/04/06 00:28:54;;;;;;;21.37;14.83;;;;;;;9.56;92.37;99444.19;5015561;28;20824;-80
2022/04/06 00:31:21;;;;;;;21.43;15.13;;;;;;;9.53;92.66;99447.06;5012244;22;20759;-72
2022/04/06 00:33:48;;;;;;;19.23;14.90;;;;;;;9.52;92.81;99442.72;4985963;28;20596;-72
2022/04/06 00:36:14;;;;;;;18.93;14.63;;;;;;;9.51;93.22;99446.34;4991417;28;20227;-72
2022/04/06 00:38:41;;;;;;;18.37;14.67;;;;;;;9.51;92.63;99438.38;4988897;28;20204;-72
2022/04/06 00:41:09;;;;;;;18.80;13.37;;;;;;;9.51;92.79;99441.03;4986333;28;20756;-72
2022/04/06 00:43:35;;;;;;;20.37;15.07;;;;;;;9.49;92.96;99447.47;4988878;28;20207;-72
2022/04/06 00:46:02;;;;;;;17.43;14.10;;;;;;;9.46;93.12;99445.88;4993055;23;20235;-82
2022/04/06 00:48:29;;;;;;;19.73;14.10;;;;;;;9.46;92.90;99451.19;4976559;28;20196;-81
2022/04/06 00:50:55;;;;;;;16.33;12.10;;;;;;;9.43;93.07;99440.81;4978849;28;20289;-81
2022/04/06 00:53:24;;;;;;;16.20;10.77;;;;;;;9.41;92.84;99448.03;4977068;28;20686;-81
2022/04/06 00:55:50;;;;;;;14.67;11.10;;;;;;;9.39;93.08;99444.66;4982637;28;20208;-81
2022/04/06 00:58:19;;;;;;;13.27;10.30;;;;;;;9.37;93.33;99438.63;4983836;28;20207;-81
2022/04/06 01:00:45;;;;;;;15.00;9.53;;;;;;;9.35;92.99;99441.38;4978779;28;20335;-81
2022/04/06 01:03:12;;;;;;;14.83;9.50;;;;;;;9.32;92.59;99438.97;4979834;28;20234;-81
2022/04/06 01:05:39;;;;;;;12.73;8.97;;;;;;;9.31;93.19;99433.78;4982252;28;20204;-81
2022/04/06 01:08:06;;;;;;;13.33;9.70;;;;;;;9.29;92.79;99433.91;4981477;28;20212;-81
2022/04/06 01:10:32;;;;;;;13.13;9.67;;;;;;;9.26;93.10;99436.78;4982262;28;20303;-81
2022/04/06 01:13:00;;;;;;;14.43;10.53;;;;;;;9.25;93.23;99440.41;4975020;28;20205;-81
2022/04/06 01:15:28;;;;;;;15.07;10.77;;;;;;;9.22;93.44;99429.19;4988328;28;20203;-81
2022/04/06 01:17:55;;;;;;;15.57;11.97;;;;;;;9.22;93.15;99429.19;4980904;28;20881;-80
2022/04/06 01:20:21;;;;;;;17.13;12.27;;;;;;;9.21;93.33;99427.47;4980121;28;20224;-81
2022/04/06 01:22:49;;;;;;;18.90;14.27;;;;;;;9.20;93.42;99418.66;4974294;28;20224;-81
2022/04/06 01:25:15;;;;;;;17.80;14.67;;;;;;;9.20;92.93;99433.75;4977931;28;20224;-81
2022/04/06 01:27:42;;;;;;;22.97;15.00;;;;;;;9.18;93.29;99419.75;4966039;28;20216;-81
2022/04/06 01:30:09;;;;;;;23.27;15.23;;;;;;;9.17;93.45;99423.34;4989152;28;21293;-81
2022/04/06 01:32:36;;;;;;;25.60;14.90;;;;;;;9.16;93.53;99414.53;4985213;28;20196;-81
2022/04/06 01:35:05;;;;;;;26.50;15.57;;;;;;;9.14;93.06;99424.44;4977938;28;20204;-81
2022/04/06 01:37:34;;;;;;;29.57;15.80;;;;;;;9.14;93.33;99423.59;4980237;28;20212;-81
2022/04/06 01:40:03;;;;;;;22.97;14.73;;;;;;;9.11;93.69;99424.69;4982624;28;20216;-81
2022/04/06 01:42:30;;;;;;;20.97;13.77;;;;;;;9.14;93.30;99415.63;4997589;28;20308;-81
2022/04/06 01:44:56;;;;;;;20.17;15.30;;;;;;;9.13;93.02;99421.94;4980701;28;20212;-81
2022/04/06 01:47:23;;;;;;;25.77;15.47;;;;;;;9.15;93.10;99426.13;4980679;28;20283;-81
2022/04/06 01:52:35;;;;;;;26.60;14.57;;;;;;;9.17;92.54;99418.91;4980567;28;20318;-81
2022/04/06 01:55:05;;;;;;;24.90;15.57;;;;;;;9.19;92.70;99418.78;4962489;28;20209;-81
2022/04/06 01:57:32;;;;;;;28.77;16.83;;;;;;;9.21;91.76;99422.16;4962043;28;20217;-80
2022/04/06 01:59:59;;;;;;;25.63;15.80;;;;;;;9.21;91.81;99422.16;4962622;28;20227;-81
2022/04/06 02:02:30;;;;;;;24.00;15.83;;;;;;;9.21;91.55;99416.84;4962842;28;20232;-81
2022/04/06 02:04:58;;;;;;;22.87;16.87;;;;;;;9.21;91.80;99423.00;4983224;28;20196;-80
2022/04/06 02:07:26;;;;;;;25.27;17.03;;;;;;;9.22;91.05;99421.19;5001392;28;20208;-81
2022/04/06 02:09:53;;;;;;;31.43;18.53;;;;;;;9.22;91.06;99411.41;5001958;28;20266;-81
2022/04/06 02:12:22;;;;;;;32.27;19.63;;;;;;;9.22;91.10;99415.88;4996207;28;20319;-81
2022/04/06 02:14:49;;;;;;;27.90;19.40;;;;;;;9.23;90.74;99417.59;4983888;28;20232;-81
2022/04/06 02:17:16;;;;;;;28.17;20.23;;;;;;;9.23;91.16;99418.44;4968274;28;20213;-82
2022/04/06 02:19:42;;;;;;;28.37;20.43;;;;;;;9.25;91.09;99420.97;4962890;28;20460;-82
2022/04/06 02:22:10;;;;;;;34.20;22.03;;;;;;;9.26;90.47;99430.63;4965191;28;20235;-81
2022/04/06 02:24:37;;;;;;;36.93;22.87;;;;;;;9.27;90.38;99424.34;4966311;28;20217;-82
2022/04/06 02:27:06;;;;;;;36.00;22.77;;;;;;;9.27;90.17;99419.03;4991826;28;20204;-81
2022/04/06 02:29:34;;;;;;;39.83;23.23;;;;;;;9.27;90.01;99419.91;4983000;28;20286;-81
2022/04/06 02:32:01;;;;;;;33.97;23.70;;;;;;;9.25;90.22;99415.66;4978630;28;20231;-82
2022/04/06 02:34:27;;;;;;;34.67;22.77;;;;;;;9.27;89.98;99414.59;4982926;28;20200;-81
2022/04/06 02:36:54;;;;;;;40.67;25.30;;;;;;;9.27;89.90;99416.38;4990460;28;20201;-81
2022/04/06 02:39:21;;;;;;;38.87;25.67;;;;;;;9.28;89.82;99404.81;4983030;28;20571;-82
2022/04/06 02:41:48;;;;;;;42.07;25.07;;;;;;;9.29;89.84;99404.69;4983654;28;20224;-81
2022/04/06 02:44:15;;;;;;;44.13;25.80;;;;;;;9.28;89.70;99392.38;4976133;28;20204;-81
2022/04/06 02:46:43;;;;;;;40.97;27.40;;;;;;;9.29;89.91;99399.38;4981885;28;20234;-81
2022/04/06 02:49:10;;;;;;;45.27;25.43;;;;;;;9.29;89.35;99396.72;4968741;28;20220;-80
2022/04/06 02:51:36;;;;;;;39.83;25.60;;;;;;;9.30;89.03;99392.25;4963193;28;20315;-80
2022/04/06 02:54:03;;;;;;;43.57;27.30;;;;;;;9.29;89.19;99386.09;4963361;28;20581;-79
2022/04/06 02:56:30;;;;;;;41.30;27.83;;;;;;;9.28;89.56;99376.41;4987716;28;20199;-81
2022/04/06 02:58:56;;;;;;;43.30;27.60;;;;;;;9.30;89.25;99384.28;4968681;28;20296;-81
2022/04/06 03:01:23;;;;;;;44.37;27.37;;;;;;;9.30;89.46;99381.63;4962720;28;20274;-81
2022/04/06 03:03:51;;;;;;;44.27;25.83;;;;;;;9.30;88.71;99381.63;4963106;28;20287;-81
2022/04/06 03:06:18;;;;;;;41.47;25.93;;;;;;;9.26;88.81;99382.81;4964402;28;20277;-81
2022/04/06 03:08:44;;;;;;;40.23;25.57;;;;;;;9.26;88.28;99378.34;4971376;28;20207;-81
2022/04/06 03:11:11;;;;;;;41.70;25.17;;;;;;;9.29;88.32;99385.25;4979063;28;20323;-81
2022/04/06 03:13:38;;;;;;;40.53;25.67;;;;;;;9.31;88.30;99375.34;4989593;28;20202;-81
2022/04/06 03:16:05;;;;;;;45.40;25.77;;;;;;;9.33;87.95;99378.69;4981645;28;20215;-81
2022/04/06 03:18:32;;;;;;;46.37;25.10;;;;;;;9.32;88.13;99369.03;4967965;28;20648;-80
2022/04/06 03:21:00;;;;;;;40.10;22.43;;;;;;;9.32;87.55;99379.66;4979354;28;20234;-81
2022/04/06 03:23:27;;;;;;;43.77;27.00;;;;;;;9.31;87.78;99368.22;4974827;28;20221;-81
2022/04/06 03:25:53;;;;;;;42.70;26.10;;;;;;;9.31;87.61;99362.06;4972161;28;20208;-81
2022/04/06 03:28:20;;;;;;;44.60;25.27;;;;;;;9.30;87.37;99369.19;4975351;28;20202;-80
2022/04/06 03:30:47;;;;;;;42.00;24.50;;;;;;;9.30;87.53;99371.84;4965360;28;20225;-81
2022/04/06 03:33:15;;;;;;;43.57;25.23;;;;;;;9.32;87.20;99363.72;4965471;28;20291;-80
2022/04/06 03:35:42;;;;;;;44.33;25.00;;;;;;;9.32;86.66;99366.38;4981184;28;20204;-81
2022/04/06 03:38:10;;;;;;;40.80;24.23;;;;;;;9.33;87.13;99362.75;4980297;28;20273;-81
2022/04/06 03:40:36;;;;;;;45.87;25.27;;;;;;;9.35;86.75;99368.78;4980497;28;20739;-81
2022/04/06 03:43:03;;;;;;;42.53;25.10;;;;;;;9.35;86.73;99363.47;4981724;28;20582;-81
2022/04/06 03:45:30;;;;;;;39.03;24.80;;;;;;;9.34;86.01;99359.13;4980504;28;20200;-81
2022/04/06 03:47:56;;;;;;;40.67;24.20;;;;;;;9.33;86.39;99366.25;4979723;28;20694;-81
2022/04/06 03:50:23;;;;;;;39.70;22.80;;;;;;;9.34;86.17;99359.13;4980026;28;20239;-80
2022/04/06 03:52:49;;;;;;;41.90;23.50;;;;;;;9.30;85.48;99355.06;4981180;28;20204;-81
2022/04/06 03:55:17;;;;;;;37.50;23.37;;;;;;;9.31;85.39;99356.75;4980039;28;20212;-80
2022/04/06 03:57:44;;;;;;;43.00;23.73;;;;;;;9.31;85.83;99354.94;4980867;28;20212;-81
2022/04/06 04:00:12;;;;;;;40.70;22.40;;;;;;;9.31;85.41;99368.22;4978017;28;20228;-80
2022/04/06 04:02:39;;;;;;;36.93;22.47;;;;;;;9.32;85.13;99364.56;4961448;28;20319;-81
2022/04/06 04:05:06;;;;;;;31.27;20.07;;;;;;;9.34;85.57;99343.19;4966506;28;20204;-81
2022/04/06 04:07:37;;;;;;;40.30;23.93;;;;;;;9.33;84.96;99354.78;4962920;28;20209;-81
2022/04/06 04:10:05;;;;;;;34.97;21.00;;;;;;;9.34;85.35;99351.16;4979065;28;20208;-81
2022/04/06 04:12:33;;;;;;;35.60;20.77;;;;;;;9.35;84.79;99363.47;4962691;28;20207;-81
2022/04/06 04:15:00;;;;;;;33.77;20.53;;;;;;;9.37;84.29;99358.91;4960700;28;20213;-79
2022/04/06 04:17:26;;;;;;;39.17;20.20;;;;;;;9.36;84.77;99360.72;4961833;28;20825;-79
2022/04/06 04:19:53;;;;;;;31.13;20.07;;;;;;;9.36;84.53;99373.16;4963339;28;20208;-80
2022/04/06 04:22:19;;;;;;;30.80;19.53;;;;;;;9.35;84.71;99353.69;4961975;28;20224;-79
2022/04/06 04:24:46;;;;;;;33.80;19.63;;;;;;;9.34;84.37;99357.31;4980170;28;20226;-79
2022/04/06 04:27:12;;;;;;;31.23;18.77;;;;;;;9.33;84.66;99360.94;4979134;28;20204;-80
2022/04/06 04:29:40;;;;;;;33.70;20.37;;;;;;;9.33;84.55;99357.44;4970970;28;20208;-82
2022/04/06 04:32:10;;;;;;;33.60;19.63;;;;;;;9.31;83.84;99362.91;4965090;28;20846;-81
2022/04/06 04:34:36;;;;;;;32.40;18.23;;;;;;;9.31;84.11;99362.06;4960989;28;20217;-81
2022/04/06 04:37:03;;;;;;;30.90;17.97;;;;;;;9.29;83.30;99361.31;4960981;28;20216;-82
2022/04/06 04:39:30;;;;;;;34.73;17.60;;;;;;;9.29;84.13;99354.19;4984245;28;20199;-81
2022/04/06 04:41:57;;;;;;;26.40;18.03;;;;;;;9.29;83.86;99358.66;4987951;28;20238;-81
2022/04/06 04:44:24;;;;;;;28.00;16.63;;;;;;;9.30;83.47;99355.91;4980230;28;20208;-78
2022/04/06 04:46:52;;;;;;;24.37;14.50;;;;;;;9.29;83.43;99364.84;4985155;28;20217;-79
2022/04/06 04:49:18;;;;;;;24.10;15.80;;;;;;;9.29;83.65;99353.34;4974141;28;20208;-81
2022/04/06 04:51:45;;;;;;;23.53;14.97;;;;;;;9.29;83.68;99348.88;4961471;28;20236;-80
2022/04/06 04:54:12;;;;;;;20.13;13.80;;;;;;;9.29;83.45;99356.84;4976817;28;20692;-81
2022/04/06 04:56:41;;;;;;;21.00;15.40;;;;;;;9.28;83.08;99346.34;4979078;28;20717;-81
2022/04/06 04:59:08;;;;;;;22.27;14.67;;;;;;;9.27;83.42;99348.16;4979664;28;20597;-80
2022/04/06 05:01:34;;;;;;;19.50;13.83;;;;;;;9.26;82.81;99353.59;4978384;28;20224;-80
2022/04/06 05:04:02;;;;;;;20.10;13.37;;;;;;;9.26;82.72;99350.94;4964626;28;20240;-81
2022/04/06 05:06:29;;;;;;;19.60;13.23;;;;;;;9.25;82.89;99352.75;4959400;28;20595;-80
2022/04/06 05:08:55;;;;;;;18.77;13.07;;;;;;;9.23;83.35;99352.03;4970945;28;20219;-80
2022/04/06 05:11:22;;;;;;;19.07;13.13;;;;;;;9.24;82.89;99352.88;4978633;28;20339;-79
2022/04/06 05:13:48;;;;;;;18.97;13.83;;;;;;;9.22;82.53;99347.66;4968159;28;20567;-80
2022/04/06 05:16:15;;;;;;;19.77;13.27;;;;;;;9.21;82.90;99348.63;4973767;28;20224;-80
2022/04/06 05:18:42;;;;;;;19.97;13.57;;;;;;;9.22;82.73;99352.13;4971415;28;20201;-80
2022/04/06 05:21:09;;;;;;;22.37;12.70;;;;;;;9.22;82.77;99360.09;4960869;28;20660;-79
2022/04/06 05:23:36;;;;;;;21.57;12.93;;;;;;;9.21;82.58;99369.03;4966508;28;20229;-80
2022/04/06 05:26:03;;;;;;;16.20;13.03;;;;;;;9.20;82.54;99370.84;4968472;28;20207;-80
2022/04/06 05:28:29;;;;;;;22.40;13.27;;;;;;;9.19;82.74;99368.31;4978382;28;20204;-80
2022/04/06 05:30:56;;;;;;;20.80;11.13;;;;;;;9.21;83.07;99361.91;4969159;28;20232;-80
2022/04/06 05:33:23;;;;;;;16.70;11.77;;;;;;;9.19;82.85;99365.66;4969197;28;20237;-80
2022/04/06 05:35:49;;;;;;;17.80;11.83;;;;;;;9.18;83.25;99366.63;4977838;28;20215;-80
2022/04/06 05:38:17;;;;;;;17.30;10.47;;;;;;;9.20;82.52;99375.31;4987708;28;20220;-80
2022/04/06 05:40:44;;;;;;;16.73;11.70;;;;;;;9.21;83.00;99367.22;4997589;28;20379;-80
2022/04/06 05:43:10;;;;;;;13.87;11.53;;;;;;;9.20;82.94;99365.53;4969568;28;20564;-80
2022/04/06 05:45:37;;;;;;;19.30;11.47;;;;;;;9.22;82.77;99370.72;4971586;28;20208;-79
2022/04/06 05:48:04;;;;;;;15.53;11.57;;;;;;;9.22;83.21;99370.72;4985601;28;20617;-80
2022/04/06 05:50:31;;;;;;;15.33;10.80;;;;;;;9.23;83.04;99367.09;4980605;28;20236;-80
2022/04/06 05:52:57;;;;;;;16.53;10.50;;;;;;;9.23;82.75;99367.97;4977899;28;20420;-80
2022/04/06 05:55:25;;;;;;;15.37;10.87;;;;;;;9.22;82.67;99374.22;4978389;28;20300;-80
2022/04/06 05:57:52;;;;;;;16.83;11.00;;;;;;;9.23;82.95;99377.72;4978968;28;20212;-80
2022/04/06 06:00:19;;;;;;;17.70;11.07;;;;;;;9.22;82.50;99378.69;4980802;28;20228;-79
2022/04/06 06:02:45;;;;;;;14.47;10.90;;;;;;;9.20;82.10;99375.31;4981214;28;20268;-78
2022/04/06 06:05:12;;;;;;;21.80;11.33;;;;;;;9.20;82.03;99377.97;4979178;28;20216;-79
2022/04/06 06:07:39;;;;;;;18.47;10.90;;;;;;;9.21;81.90;99377.84;4979668;28;20204;-79
2022/04/06 06:10:06;;;;;;;21.47;11.60;;;;;;;9.22;82.62;99384.00;4983587;28;20215;-79
2022/04/06 06:12:35;;;;;;;21.33;11.77;;;;;;;9.22;82.01;99378.69;4982197;28;20200;-79
2022/04/06 06:15:01;;;;;;;26.83;11.70;;;;;;;9.22;82.25;99382.19;4987001;28;20303;-79
2022/04/06 06:17:28;;;;;;;15.03;11.47;;;;;;;9.21;81.67;99383.16;4984783;28;20222;-79
2022/04/06 06:19:55;;;;;;;18.83;12.53;;;;;;;9.23;81.54;99373.28;4971018;28;20209;-79
2022/04/06 06:22:21;;;;;;;20.23;13.43;;;;;;;9.23;82.17;99385.72;4996028;28;20204;-79
2022/04/06 06:24:48;;;;;;;17.03;12.93;;;;;;;9.25;82.23;99381.97;4980583;28;20235;-78
2022/04/06 06:27:19;;;;;;;16.33;13.27;;;;;;;9.25;82.30;99378.47;4980816;28;20207;-81
2022/04/06 06:29:47;;;;;;;21.37;13.23;;;;;;;9.24;81.43;99376.78;4994353;28;20204;-81
2022/04/06 06:32:14;;;;;;;23.07;13.50;;;;;;;9.24;81.91;99377.63;5009189;23;20612;-78
2022/04/06 06:34:41;;;;;;;18.03;13.23;;;;;;;9.25;81.59;99381.13;4993832;28;20204;-78
2022/04/06 06:37:07;;;;;;;19.50;14.33;;;;;;;9.26;81.80;99372.19;4994692;28;20246;-78
2022/04/06 06:39:34;;;;;;;23.53;14.10;;;;;;;9.27;81.97;99371.22;4996717;28;20622;-78
2022/04/06 06:42:01;;;;;;;22.30;13.60;;;;;;;9.27;81.53;99380.03;4994881;28;20232;-78
2022/04/06 06:44:27;;;;;;;25.10;15.00;;;;;;;9.25;81.22;99379.31;4991385;28;20599;-79
2022/04/06 06:46:55;;;;;;;19.30;14.23;;;;;;;9.26;81.71;99383.66;4980675;28;20207;-80
2022/04/06 06:49:22;;;;;;;22.47;15.13;;;;;;;9.26;81.76;99375.69;4990269;28;20207;-81
2022/04/06 06:51:50;;;;;;;24.53;15.63;;;;;;;9.27;81.49;99376.53;4994394;28;20219;-79
2022/04/06 06:54:16;;;;;;;20.90;14.30;;;;;;;9.27;81.55;99374.72;4986713;28;20200;-80
2022/04/06 06:56:43;;;;;;;22.30;14.90;;;;;;;9.27;81.85;99379.19;4991726;28;20298;-79
2022/04/06 06:59:10;;;;;;;23.13;15.07;;;;;;;9.27;81.80;99376.53;4994379;28;20207;-80
2022/04/06 07:01:37;;;;;;;25.50;15.50;;;;;;;9.27;81.67;99384.50;4983329;28;20860;-80
2022/04/06 07:04:07;;;;;;;21.30;13.83;;;;;;;9.27;81.54;99377.38;4989218;28;20227;-79
2022/04/06 07:06:33;;;;;;;23.07;14.90;;;;;;;9.27;81.60;99373.88;4983481;28;20212;-79
2022/04/06 07:09:00;;;;;;;16.40;13.43;;;;;;;9.29;81.17;99375.47;4981616;28;20215;-80
2022/04/06 07:11:27;;;;;;;19.47;11.90;;;;;;;9.28;80.94;99368.44;4996254;28;20219;-80
2022/04/06 07:13:53;;;;;;;15.53;12.43;;;;;;;9.29;81.24;99363.97;4989486;28;20203;-80
2022/04/06 07:16:19;;;;;;;21.30;12.43;;;;;;;9.30;80.80;99371.00;4990667;28;20207;-79
2022/04/06 07:18:46;;;;;;;22.03;12.30;;;;;;;9.28;79.80;99372.91;4991765;28;20218;-80
2022/04/06 07:21:14;;;;;;;16.70;11.97;;;;;;;9.26;79.72;99365.06;4992492;28;20233;-81
2022/04/06 07:23:43;;;;;;;13.70;10.20;;;;;;;9.27;80.01;99360.59;4989957;28;20250;-79
2022/04/06 07:26:12;;;;;;;13.57;9.97;;;;;;;9.26;79.43;99367.72;4992872;28;20673;-80
2022/04/06 07:28:39;;;;;;;15.37;10.67;;;;;;;9.28;78.86;99364.94;4993512;28;20235;-80
2022/04/06 07:31:05;;;;;;;13.83;9.07;;;;;;;9.30;79.17;99361.22;4993179;28;20231;-78
2022/04/06 07:33:36;;;;;;;15.97;10.60;;;;;;;9.26;78.21;99361.56;4993021;28;20759;-80
2022/04/06 07:36:03;;;;;;;14.13;9.13;;;;;;;9.28;77.63;99363.13;4993405;28;20220;-80
2022/04/06 07:38:31;;;;;;;15.10;9.27;;;;;;;9.26;77.25;99358.91;4992486;28;20290;-77
2022/04/06 07:40:58;;;;;;;13.73;8.43;;;;;;;9.29;77.19;99356.00;4988275;28;20230;-80
2022/04/06 07:43:24;;;;;;;10.57;8.17;;;;;;;9.31;76.95;99356.75;4991870;28;20231;-80
2022/04/06 07:45:51;;;;;;;10.30;7.83;;;;;;;9.32;76.67;99351.28;4992017;28;20207;-80
2022/04/06 07:48:18;;;;;;;8.57;7.67;;;;;;;9.37;76.57;99340.28;4990684;28;20204;-79
2022/04/06 07:50:45;;;;;;;10.17;7.43;;;;;;;9.43;76.35;99346.94;4990712;28;20287;-81
2022/04/06 07:53:12;;;;;;;10.70;7.20;;;;;;;9.47;76.10;99343.94;4990463;28;20208;-81
2022/04/06 07:55:40;;;;;;;12.57;8.37;;;;;;;9.50;76.17;99343.66;4991604;28;20207;-82
2022/04/06 07:58:07;;;;;;;10.73;7.53;;;;;;;9.54;76.40;99352.25;4991879;28;20214;-81
2022/04/06 08:00:33;;;;;;;12.13;7.87;;;;;;;9.56;75.17;99351.16;4990408;28;20255;-80
2022/04/06 08:03:01;;;;;;;9.90;7.00;;;;;;;9.56;76.08;99356.47;4990165;28;20235;-80
2022/04/06 08:05:28;;;;;;;9.13;7.10;;;;;;;9.61;75.39;99348.13;4990027;28;20206;-80
2022/04/06 08:07:54;;;;;;;11.43;7.77;;;;;;;9.60;75.02;99351.75;4990730;28;20602;-79
2022/04/06 08:10:22;;;;;;;8.33;6.97;;;;;;;9.59;74.60;99348.25;4991138;28;20589;-80
2022/04/06 08:12:50;;;;;;;11.23;6.63;;;;;;;9.61;74.15;99356.13;4992209;28;20203;-80
2022/04/06 08:15:17;;;;;;;7.83;6.40;;;;;;;9.62;74.00;99356.00;4992761;28;20227;-79
2022/04/06 08:17:45;;;;;;;11.77;7.50;;;;;;;9.63;74.12;99354.19;4990531;28;20214;-80
2022/04/06 08:20:13;;;;;;;9.47;7.20;;;;;;;9.62;73.79;99350.69;4990842;28;20767;-81
2022/04/06 08:22:41;;;;;;;9.77;6.43;;;;;;;9.64;73.77;99354.06;4989239;28;20218;-79
2022/04/06 08:25:11;;;;;;;8.40;6.70;;;;;;;9.66;73.51;99344.16;4993648;28;20234;-79
2022/04/06 08:27:40;;;;;;;10.80;6.77;;;;;;;9.68;73.90;99359.97;4996372;28;20208;-79
2022/04/06 08:30:10;;;;;;;13.47;6.83;;;;;;;9.67;73.31;99343.16;4989398;28;20207;-81
2022/04/06 08:32:37;;;;;;;10.13;6.23;;;;;;;9.67;73.51;99352.97;4991695;28;20310;-81
2022/04/06 08:35:04;;;;;;;8.83;6.90;;;;;;;9.66;72.75;99360.09;4996360;28;20214;-80
2022/04/06 08:37:38;;;;;;;11.37;6.77;;;;;;;9.67;72.70;99358.28;4992372;28;20208;-80
2022/04/06 08:40:08;;;;;;;8.10;6.60;;;;;;;9.69;72.66;99356.34;4992450;28;20219;-79
2022/04/06 08:42:40;;;;;;;8.77;5.67;;;;;;;9.70;72.91;99353.56;4990112;28;20203;-80
2022/04/06 08:45:11;;;;;;;8.03;5.97;;;;;;;9.71;72.62;99354.41;4991325;28;20239;-80
2022/04/06 08:47:37;;;;;;;11.17;5.80;;;;;;;9.72;72.46;99350.78;4987231;28;20831;-80
2022/04/06 08:50:06;;;;;;;7.37;5.10;;;;;;;9.72;72.24;99359.59;4987988;28;20210;-82
2022/04/06 08:52:34;;;;;;;6.37;4.83;;;;;;;9.70;71.25;99342.91;4988479;28;20210;-82
2022/04/06 08:55:01;;;;;;;7.17;4.60;;;;;;;9.73;71.19;99347.16;4992085;28;20651;-82
2022/04/06 08:57:27;;;;;;;6.47;3.70;;;;;;;9.72;70.50;99353.44;4988099;28;20212;-80
2022/04/06 08:59:54;;;;;;;8.07;4.00;;;;;;;9.72;70.25;99350.78;4990967;28;20211;-81
2022/04/06 09:02:23;;;;;;;6.33;3.67;;;;;;;9.71;70.02;99349.06;4985733;28;20769;-80
2022/04/06 09:04:51;;;;;;;5.40;3.57;;;;;;;9.73;70.14;99341.84;4986968;28;20318;-79
2022/04/06 09:07:19;;;;;;;7.57;3.40;;;;;;;9.70;69.07;99334.94;4990657;28;20224;-79
2022/04/06 09:09:50;;;;;;;6.23;3.40;;;;;;;9.72;69.68;99346.31;4992712;28;20211;-81
2022/04/06 09:12:20;;;;;;;4.90;2.90;;;;;;;9.80;68.51;99342.19;4984936;28;20228;-81
2022/04/06 09:14:47;;;;;;;4.80;3.07;;;;;;;9.79;68.59;99335.19;4992398;28;20270;-81
2022/04/06 09:17:19;;;;;;;5.77;3.57;;;;;;;9.82;68.18;99327.81;4991942;28;20830;-79
2022/04/06 09:19:49;;;;;;;5.80;3.97;;;;;;;9.82;68.44;99329.63;4992200;28;20211;-80
2022/04/06 09:22:16;;;;;;;5.00;3.53;;;;;;;9.86;68.51;99321.25;4990176;28;20232;-80
2022/04/06 09:24:56;;;;;;;4.37;3.40;;;;;;;9.90;68.69;99319.19;4988074;28;20708;-81
2022/04/06 09:27:23;;;;;;;5.77;3.30;;;;;;;9.93;68.28;99313.63;4983273;28;20208;-80
2022/04/06 09:29:49;;;;;;;6.67;3.57;;;;;;;9.91;68.12;99315.56;4986410;28;20212;-81
2022/04/06 09:32:16;;;;;;;6.30;3.47;;;;;;;9.93;68.25;99305.66;4992347;28;20330;-80
2022/04/06 09:34:42;;;;;;;6.40;3.27;;;;;;;9.92;68.54;99333.22;4991315;28;20220;-81
2022/04/06 09:37:27;;;;;;;6.10;3.40;;;;;;;9.91;68.23;99286.31;4992970;28;20285;-80
2022/04/06 09:39:55;;;;;;;6.20;3.13;;;;;;;9.97;67.77;99313.25;4994555;28;20227;-80
2022/04/06 09:42:24;;;;;;;4.67;3.03;;;;;;;9.95;68.00;99309.03;4989930;28;20350;-79
2022/04/06 09:47:39;;;;;;;6.73;3.57;;;;;;;10.02;68.67;99300.44;4984800;28;20214;-80
2022/04/06 09:50:14;;;;;;;5.73;3.07;;;;;;;10.04;67.92;99294.97;4991712;28;20215;-81
2022/04/06 09:52:44;;;;;;;7.53;4.23;;;;;;;10.11;67.61;99293.50;4993158;28;20246;-81
2022/04/06 09:55:12;;;;;;;5.67;3.47;;;;;;;10.17;67.38;99282.34;4991297;28;20829;-81
2022/04/06 09:57:47;;;;;;;5.63;3.97;;;;;;;10.16;67.48;99262.03;4990959;28;20238;-81
2022/04/06 10:00:19;;;;;;;5.40;3.43;;;;;;;10.18;67.01;99261.91;4991001;28;20294;-81
2022/04/06 10:02:48;;;;;;;6.80;3.90;;;;;;;10.20;67.09;99271.50;4989938;28;20218;-81
2022/04/06 10:05:15;;;;;;;7.23;3.50;;;;;;;10.29;67.23;99259.22;4990490;28;20231;-81
2022/04/06 10:07:43;;;;;;;5.70;2.90;;;;;;;10.37;67.42;99256.75;4988266;28;20199;-81
2022/04/06 10:10:13;;;;;;;5.17;3.33;;;;;;;10.43;67.21;99267.72;4987681;28;20208;-79
2022/04/06 10:12:40;;;;;;;4.77;2.97;;;;;;;10.47;67.12;99252.34;4992728;28;20219;-80
2022/04/06 10:15:08;;;;;;;6.10;2.97;;;;;;;10.54;66.84;99260.66;4996156;28;20208;-80
2022/04/06 10:17:35;;;;;;;4.53;3.20;;;;;;;10.57;66.60;99263.06;4997179;28;20231;-80
2022/04/06 10:20:09;;;;;;;8.10;3.53;;;;;;;10.60;66.75;99270.75;4997670;28;20645;-80
2022/04/06 10:22:50;;;;;;;5.20;2.90;;;;;;;10.66;66.73;99263.09;4997639;28;20180;-80
2022/04/06 10:25:26;;;;;;;5.87;2.90;;;;;;;10.71;67.08;99266.22;4997480;28;20346;-80
2022/04/06 10:27:56;;;;;;;3.17;2.43;;;;;;;10.77;66.30;99260.34;4996855;28;20664;-80
2022/04/06 10:30:23;;;;;;;2.50;2.10;;;;;;;10.78;66.26;99262.03;4997478;28;20211;-80
2022/04/06 10:32:51;;;;;;;3.27;2.53;;;;;;;10.71;65.63;99257.41;4998165;28;20282;-79
2022/04/06 10:35:24;;;;;;;4.87;2.50;;;;;;;10.71;66.14;99274.22;4997517;28;20558;-80
2022/04/06 10:38:12;;;;;;;5.97;2.80;;;;;;;10.76;66.41;99250.66;4997854;28;20208;-80
2022/04/06 10:40:59;;;;;;;4.90;2.50;;;;;;;10.79;66.42;99266.41;4997509;28;20225;-79
2022/04/06 10:43:50;;;;;;;5.03;3.50;;;;;;;10.80;66.50;99248.59;4998098;28;20239;-80
2022/04/06 10:46:20;;;;;;;3.53;3.23;;;;;;;10.78;66.64;99256.72;4998808;28;20212;-80
2022/04/06 10:49:12;;;;;;;5.13;3.23;;;;;;;10.85;66.88;99249.06;4999380;28;20214;-79
2022/04/06 10:51:41;;;;;;;5.83;3.27;;;;;;;10.86;67.00;99258.72;4994739;28;20282;-80
2022/04/06 10:54:40;;;;;;;4.80;3.27;;;;;;;10.88;66.78;99240.81;4997169;28;20324;-81
2022/04/06 10:57:07;;;;;;;5.80;3.50;;;;;;;10.93;66.40;99248.38;4996892;28;20189;-81
2022/04/06 10:59:34;;;;;;;6.57;3.20;;;;;;;10.98;66.71;99262.97;4996996;28;20243;-80
2022/04/06 11:02:18;;;;;;;5.53;2.87;;;;;;;11.00;66.32;99247.72;4996122;28;21050;-81
2022/04/06 11:04:45;;;;;;;5.23;3.30;;;;;;;11.01;65.76;99253.88;4996605;28;20243;-80
2022/04/06 11:07:15;;;;;;;5.37;2.80;;;;;;;11.02;65.78;99258.25;4996717;28;20299;-81
2022/04/06 11:12:29;;;;;;;3.67;2.73;;;;;;;11.01;65.58;99252.06;4996911;28;20857;-80
2022/04/06 11:15:20;;;;;;;6.40;3.20;;;;;;;11.03;65.67;99259.94;4996525;28;20212;-80
2022/04/06 11:17:48;;;;;;;7.20;2.77;;;;;;;11.05;65.72;99271.28;4996739;28;20271;-79
2022/04/06 11:20:16;;;;;;;4.30;3.07;;;;;;;11.04;65.22;99281.09;4996697;28;20306;-80
2022/04/06 11:22:44;;;;;;;6.40;3.60;;;;;;;11.02;64.53;99272.41;4998277;28;20239;-80
2022/04/06 11:25:14;;;;;;;4.20;3.33;;;;;;;10.95;64.90;99265.06;4996388;28;20699;-79
2022/04/06 11:27:41;;;;;;;7.07;3.57;;;;;;;10.92;65.17;99276.84;4996857;28;20211;-80
2022/04/06 11:30:12;;;;;;;6.57;4.10;;;;;;;10.89;65.28;99269.13;4996364;28;20726;-79
2022/04/06 11:32:39;;;;;;;4.73;3.80;;;;;;;10.91;65.37;99266.34;4996772;28;20203;-80
2022/04/06 11:35:08;;;;;;;4.10;3.20;;;;;;;10.92;65.77;99263.53;4997144;28;20218;-80
2022/04/06 11:37:41;;;;;;;5.53;3.13;;;;;;;10.93;65.81;99269.69;4997123;28;20231;-80
2022/04/06 11:40:09;;;;;;;4.70;4.30;;;;;;;10.92;65.92;99274.19;4996567;28;20195;-79
2022/04/06 11:42:38;;;;;;;5.43;4.00;;;;;;;10.95;66.16;99281.03;4997289;28;20291;-80